sensor_id;sensor_type;location;lat;lon;timestamp;pressure;altitude;pressure_sealevel;temperature;humidity
6514;BME280;3290;47.716;9.070;2023-04-24T00:01:26;96110.91;;;13.87;100.00
6514;BME280;3290;47.716;9.070;2023-04-24T00:03:52;96103.53;;;13.48;100.00
6514;BME280;3290;47.716;9.070;2023-04-24T00:06:17;96108.06;;;13.57;100.00
6514;BME280;3290;47.716;9.070;2023-04-24T00:08:42;96101.41;;;13.86;100.00
6514;BME280;3290;47.716;9.070;2023-04-24T00:11:08;96101.88;;;13.78;100.00
6514;BME280;3290;47.716;9.070;2023-04-24T00:13:34;96094.97;;;13.67;100.00
6514;BME280;3290;47.716;9.070;2023-04-24T00:16:00;96107.88;;;13.32;100.00
6514;BME280;3290;47.716;9.070;2023-04-24T00:18:25;96098.00;;;13.49;100.00
6514;BME280;3290;47.716;9.070;2023-04-24T00:20:51;96101.97;;;13.52;100.00
6514;BME280;3290;47.716;9.070;2023-04-24T00:23:16;96098.78;;;13.50;100.00
6514;BME280;3290;47.716;9.070;2023-04-24T00:25:41;96096.25;;;13.64;100.00
6514;BME280;3290;47.716;9.070;2023-04-24T00:28:07;96096.00;;;13.66;100.00
6514;BME280;3290;47.716;9.070;2023-04-24T00:30:32;96094.59;;;13.22;100.00
6514;BME280;3290;47.716;9.070;2023-04-24T00:32:57;96096.94;;;13.50;100.00
6514;BME280;3290;47.716;9.070;2023-04-24T00:35:23;96094.81;;;13.47;100.00
6514;BME280;3290;47.716;9.070;2023-04-24T00:37:48;96093.53;;;13.50;100.00
6514;BME280;3290;47.716;9.070;2023-04-24T00:40:14;96094.03;;;13.47;100.00
6514;BME280;3290;47.716;9.070;2023-04-24T00:42:40;96096.56;;;13.37;100.00
6514;BME280;3290;47.716;9.070;2023-04-24T00:45:06;96091.59;;;13.35;100.00
6514;BME280;3290;47.716;9.070;2023-04-24T00:47:32;96088.31;;;13.59;100.00
6514;BME280;3290;47.716;9.070;2023-04-24T00:49:58;96082.59;;;13.31;100.00
6514;BME280;3290;47.716;9.070;2023-04-24T00:52:23;96082.03;;;13.29;100.00
6514;BME280;3290;47.716;9.070;2023-04-24T00:54:49;96086.63;;;13.44;100.00
6514;BME280;3290;47.716;9.070;2023-04-24T00:57:15;96085.84;;;13.43;100.00
6514;BME280;3290;47.716;9.070;2023-04-24T00:59:41;96079.16;;;13.31;100.00
6514;BME280;3290;47.716;9.070;2023-04-24T01:02:07;96083.47;;;13.11;100.00
6514;BME280;3290;47.716;9.070;2023-04-24T01:04:34;96075.63;;;13.16;100.00
6514;BME280;3290;47.716;9.070;2023-04-24T01:06:59;96085.38;;;12.89;100.00
6514;BME280;3290;47.716;9.070;2023-04-24T01:09:25;96079.69;;;13.02;100.00
6514;BME280;3290;47.716;9.070;2023-04-24T01:11:50;96081.09;;;13.09;100.00
6514;BME280;3290;47.716;9.070;2023-04-24T01:14:16;96082.91;;;13.04;100.00
6514;BME280;3290;47.716;9.070;2023-04-24T01:16:41;96086.16;;;12.89;100.00
6514;BME280;3290;47.716;9.070;2023-04-24T01:19:07;96092.22;;;12.90;100.00
6514;BME280;3290;47.716;9.070;2023-04-24T01:21:36;96101.72;;;12.96;100.00
6514;BME280;3290;47.716;9.070;2023-04-24T01:24:02;96094.94;;;13.00;100.00
6514;BME280;3290;47.716;9.070;2023-04-24T01:26:27;96091.22;;;12.96;100.00
6514;BME280;3290;47.716;9.070;2023-04-24T01:28:53;96100.06;;;12.85;100.00
6514;BME280;3290;47.716;9.070;2023-04-24T01:31:18;96099.06;;;12.91;100.00
6514;BME280;3290;47.716;9.070;2023-04-24T01:33:44;96091.94;;;12.86;100.00
6514;BME280;3290;47.716;9.070;2023-04-24T01:36:11;96094.88;;;12.95;100.00
6514;BME280;3290;47.716;9.070;2023-04-24T01:38:37;96092.06;;;13.01;100.00
6514;BME280;3290;47.716;9.070;2023-04-24T01:41:02;96095.75;;;12.79;100.00
6514;BME280;3290;47.716;9.070;2023-04-24T01:43:28;96089.34;;;12.70;100.00
6514;BME280;3290;47.716;9.070;2023-04-24T01:45:54;96087.59;;;12.54;100.00
6514;BME280;3290;47.716;9.070;2023-04-24T01:48:19;96097.50;;;12.47;100.00
6514;BME280;3290;47.716;9.070;2023-04-24T01:50:45;96081.56;;;12.54;100.00
6514;BME280;3290;47.716;9.070;2023-04-24T01:53:11;96082.34;;;12.54;100.00
6514;BME280;3290;47.716;9.070;2023-04-24T01:55:36;96078.06;;;12.48;100.00
6514;BME280;3290;47.716;9.070;2023-04-24T01:58:02;96091.13;;;12.65;100.00
6514;BME280;3290;47.716;9.070;2023-04-24T02:00:27;96091.28;;;12.53;100.00
6514;BME280;3290;47.716;9.070;2023-04-24T02:02:52;96089.63;;;12.47;100.00
6514;BME280;3290;47.716;9.070;2023-04-24T02:05:18;96094.31;;;12.45;100.00
6514;BME280;3290;47.716;9.070;2023-04-24T02:07:43;96098.56;;;12.46;100.00
6514;BME280;3290;47.716;9.070;2023-04-24T02:10:09;96097.19;;;12.44;100.00
6514;BME280;3290;47.716;9.070;2023-04-24T02:12:35;96096.22;;;12.50;100.00
6514;BME280;3290;47.716;9.070;2023-04-24T02:15:01;96098.34;;;12.32;100.00
6514;BME280;3290;47.716;9.070;2023-04-24T02:17:26;96099.88;;;12.28;100.00
6514;BME280;3290;47.716;9.070;2023-04-24T02:19:51;96088.75;;;12.42;100.00
6514;BME280;3290;47.716;9.070;2023-04-24T02:22:17;96088.78;;;12.21;100.00
6514;BME280;3290;47.716;9.070;2023-04-24T02:24:42;96096.66;;;12.21;100.00
6514;BME280;3290;47.716;9.070;2023-04-24T02:27:07;96090.25;;;12.12;100.00
6514;BME280;3290;47.716;9.070;2023-04-24T02:29:33;96099.28;;;12.21;100.00
6514;BME280;3290;47.716;9.070;2023-04-24T02:31:58;96090.78;;;12.35;100.00
6514;BME280;3290;47.716;9.070;2023-04-24T02:34:24;96093.69;;;12.34;100.00
6514;BME280;3290;47.716;9.070;2023-04-24T02:36:49;96095.38;;;12.44;100.00
6514;BME280;3290;47.716;9.070;2023-04-24T02:39:15;96095.09;;;12.20;100.00
6514;BME280;3290;47.716;9.070;2023-04-24T02:41:43;96094.72;;;12.33;100.00
6514;BME280;3290;47.716;9.070;2023-04-24T02:44:09;96090.69;;;12.25;100.00
6514;BME280;3290;47.716;9.070;2023-04-24T02:46:34;96096.34;;;12.38;100.00
6514;BME280;3290;47.716;9.070;2023-04-24T02:49:00;96093.53;;;12.45;100.00
6514;BME280;3290;47.716;9.070;2023-04-24T02:51:25;96097.41;;;12.38;100.00
6514;BME280;3290;47.716;9.070;2023-04-24T02:53:52;96083.44;;;12.16;100.00
6514;BME280;3290;47.716;9.070;2023-04-24T02:56:17;96097.00;;;12.50;100.00
6514;BME280;3290;47.716;9.070;2023-04-24T02:58:42;96095.44;;;12.49;100.00
6514;BME280;3290;47.716;9.070;2023-04-24T03:01:08;96090.47;;;12.32;100.00
6514;BME280;3290;47.716;9.070;2023-04-24T03:03:35;96091.09;;;12.38;100.00
6514;BME280;3290;47.716;9.070;2023-04-24T03:06:00;96094.84;;;12.42;100.00
6514;BME280;3290;47.716;9.070;2023-04-24T03:08:26;96084.13;;;12.28;100.00
6514;BME280;3290;47.716;9.070;2023-04-24T03:10:52;96082.31;;;12.49;100.00
6514;BME280;3290;47.716;9.070;2023-04-24T03:13:17;96083.22;;;12.38;100.00
6514;BME280;3290;47.716;9.070;2023-04-24T03:15:42;96082.91;;;12.35;100.00
6514;BME280;3290;47.716;9.070;2023-04-24T03:18:08;96082.88;;;12.56;100.00
6514;BME280;3290;47.716;9.070;2023-04-24T03:20:33;96083.88;;;12.50;100.00
6514;BME280;3290;47.716;9.070;2023-04-24T03:22:58;96078.19;;;12.58;100.00
6514;BME280;3290;47.716;9.070;2023-04-24T03:25:24;96085.13;;;12.43;100.00
6514;BME280;3290;47.716;9.070;2023-04-24T03:27:50;96082.84;;;12.51;100.00
6514;BME280;3290;47.716;9.070;2023-04-24T03:30:15;96080.13;;;12.20;100.00
6514;BME280;3290;47.716;9.070;2023-04-24T03:32:40;96086.03;;;12.11;100.00
6514;BME280;3290;47.716;9.070;2023-04-24T03:35:07;96083.75;;;12.19;100.00
6514;BME280;3290;47.716;9.070;2023-04-24T03:37:36;96090.16;;;12.07;100.00
6514;BME280;3290;47.716;9.070;2023-04-24T03:40:01;96096.66;;;12.21;100.00
6514;BME280;3290;47.716;9.070;2023-04-24T03:42:27;96097.81;;;12.08;100.00
6514;BME280;3290;47.716;9.070;2023-04-24T03:44:52;96099.81;;;12.23;100.00
6514;BME280;3290;47.716;9.070;2023-04-24T03:47:18;96097.88;;;11.92;100.00
6514;BME280;3290;47.716;9.070;2023-04-24T03:49:43;96092.94;;;12.17;100.00
6514;BME280;3290;47.716;9.070;2023-04-24T03:52:08;96101.78;;;12.11;100.00
6514;BME280;3290;47.716;9.070;2023-04-24T03:54:34;96098.59;;;12.09;100.00
6514;BME280;3290;47.716;9.070;2023-04-24T03:57:00;96094.50;;;12.18;100.00
6514;BME280;3290;47.716;9.070;2023-04-24T03:59:26;96096.72;;;12.26;100.00
6514;BME280;3290;47.716;9.070;2023-04-24T04:01:51;96099.59;;;12.24;100.00
6514;BME280;3290;47.716;9.070;2023-04-24T04:04:17;96096.63;;;11.99;100.00
6514;BME280;3290;47.716;9.070;2023-04-24T04:06:42;96095.69;;;12.27;100.00
6514;BME280;3290;47.716;9.070;2023-04-24T04:09:09;96095.19;;;12.08;100.00
6514;BME280;3290;47.716;9.070;2023-04-24T04:11:34;96093.34;;;12.09;100.00
6514;BME280;3290;47.716;9.070;2023-04-24T04:14:00;96094.09;;;12.04;100.00
6514;BME280;3290;47.716;9.070;2023-04-24T04:16:25;96097.75;;;12.25;100.00
6514;BME280;3290;47.716;9.070;2023-04-24T04:18:51;96092.91;;;11.96;100.00
6514;BME280;3290;47.716;9.070;2023-04-24T04:21:16;96104.22;;;11.96;100.00
6514;BME280;3290;47.716;9.070;2023-04-24T04:23:42;96098.66;;;11.93;100.00
6514;BME280;3290;47.716;9.070;2023-04-24T04:26:07;96102.03;;;12.31;100.00
6514;BME280;3290;47.716;9.070;2023-04-24T04:28:33;96107.94;;;12.21;100.00
6514;BME280;3290;47.716;9.070;2023-04-24T04:30:58;96109.72;;;12.16;100.00
6514;BME280;3290;47.716;9.070;2023-04-24T04:33:24;96109.84;;;12.04;100.00
6514;BME280;3290;47.716;9.070;2023-04-24T04:35:50;96108.47;;;12.02;100.00
6514;BME280;3290;47.716;9.070;2023-04-24T04:38:17;96111.41;;;12.05;100.00
6514;BME280;3290;47.716;9.070;2023-04-24T04:40:43;96119.78;;;12.02;100.00
6514;BME280;3290;47.716;9.070;2023-04-24T04:43:09;96131.16;;;12.08;100.00
6514;BME280;3290;47.716;9.070;2023-04-24T04:45:36;96118.56;;;11.89;100.00
6514;BME280;3290;47.716;9.070;2023-04-24T04:48:04;96121.13;;;12.05;100.00
6514;BME280;3290;47.716;9.070;2023-04-24T04:50:29;96122.28;;;12.14;100.00
6514;BME280;3290;47.716;9.070;2023-04-24T04:52:55;96124.81;;;12.04;100.00
6514;BME280;3290;47.716;9.070;2023-04-24T04:55:20;96138.44;;;11.85;100.00
6514;BME280;3290;47.716;9.070;2023-04-24T04:57:46;96142.72;;;11.91;100.00
6514;BME280;3290;47.716;9.070;2023-04-24T05:00:12;96144.59;;;11.95;100.00
6514;BME280;3290;47.716;9.070;2023-04-24T05:02:38;96157.53;;;11.80;100.00
6514;BME280;3290;47.716;9.070;2023-04-24T05:05:04;96164.69;;;11.68;100.00
6514;BME280;3290;47.716;9.070;2023-04-24T05:07:29;96169.13;;;11.84;100.00
6514;BME280;3290;47.716;9.070;2023-04-24T05:09:55;96166.09;;;11.76;100.00
6514;BME280;3290;47.716;9.070;2023-04-24T05:12:20;96170.66;;;11.80;100.00
6514;BME280;3290;47.716;9.070;2023-04-24T05:14:45;96163.91;;;11.68;100.00
6514;BME280;3290;47.716;9.070;2023-04-24T05:17:11;96175.22;;;11.41;100.00
6514;BME280;3290;47.716;9.070;2023-04-24T05:19:36;96174.06;;;11.64;100.00
6514;BME280;3290;47.716;9.070;2023-04-24T05:22:03;96179.78;;;11.61;100.00
6514;BME280;3290;47.716;9.070;2023-04-24T05:24:31;96187.09;;;11.59;100.00
6514;BME280;3290;47.716;9.070;2023-04-24T05:26:57;96178.06;;;11.83;100.00
6514;BME280;3290;47.716;9.070;2023-04-24T05:29:23;96176.06;;;11.58;100.00
6514;BME280;3290;47.716;9.070;2023-04-24T05:31:49;96201.75;;;11.56;100.00
6514;BME280;3290;47.716;9.070;2023-04-24T05:34:15;96196.16;;;11.52;100.00
6514;BME280;3290;47.716;9.070;2023-04-24T05:36:41;96186.63;;;11.62;100.00
6514;BME280;3290;47.716;9.070;2023-04-24T05:39:07;96204.72;;;11.48;100.00
6514;BME280;3290;47.716;9.070;2023-04-24T05:41:33;96201.09;;;11.49;100.00
6514;BME280;3290;47.716;9.070;2023-04-24T05:43:59;96206.66;;;11.68;100.00
6514;BME280;3290;47.716;9.070;2023-04-24T05:46:24;96204.03;;;11.68;100.00
6514;BME280;3290;47.716;9.070;2023-04-24T05:48:50;96200.94;;;11.55;100.00
6514;BME280;3290;47.716;9.070;2023-04-24T05:51:15;96194.03;;;11.65;100.00
6514;BME280;3290;47.716;9.070;2023-04-24T05:53:40;96196.06;;;11.47;100.00
6514;BME280;3290;47.716;9.070;2023-04-24T05:56:06;96203.31;;;11.57;100.00
6514;BME280;3290;47.716;9.070;2023-04-24T05:58:31;96209.84;;;11.70;100.00
6514;BME280;3290;47.716;9.070;2023-04-24T06:00:56;96213.19;;;11.82;100.00
6514;BME280;3290;47.716;9.070;2023-04-24T06:03:23;96217.47;;;11.72;100.00
6514;BME280;3290;47.716;9.070;2023-04-24T06:05:53;96221.94;;;11.88;100.00
6514;BME280;3290;47.716;9.070;2023-04-24T06:08:18;96221.63;;;11.84;100.00
6514;BME280;3290;47.716;9.070;2023-04-24T06:10:44;96228.00;;;11.88;100.00
6514;BME280;3290;47.716;9.070;2023-04-24T06:13:10;96223.78;;;11.87;100.00
6514;BME280;3290;47.716;9.070;2023-04-24T06:15:36;96211.75;;;11.91;100.00
6514;BME280;3290;47.716;9.070;2023-04-24T06:18:02;96206.81;;;12.11;100.00
6514;BME280;3290;47.716;9.070;2023-04-24T06:20:27;96218.13;;;12.11;100.00
6514;BME280;3290;47.716;9.070;2023-04-24T06:22:53;96214.28;;;12.19;100.00
6514;BME280;3290;47.716;9.070;2023-04-24T06:25:19;96220.56;;;12.18;100.00
6514;BME280;3290;47.716;9.070;2023-04-24T06:27:44;96219.06;;;12.22;100.00
6514;BME280;3290;47.716;9.070;2023-04-24T06:30:10;96233.44;;;12.36;100.00
6514;BME280;3290;47.716;9.070;2023-04-24T06:32:36;96230.81;;;12.36;100.00
6514;BME280;3290;47.716;9.070;2023-04-24T06:35:01;96223.50;;;12.38;100.00
6514;BME280;3290;47.716;9.070;2023-04-24T06:37:26;96225.47;;;12.68;98.93
6514;BME280;3290;47.716;9.070;2023-04-24T06:39:52;96233.34;;;12.68;97.25
6514;BME280;3290;47.716;9.070;2023-04-24T06:42:17;96227.16;;;12.79;97.09
6514;BME280;3290;47.716;9.070;2023-04-24T06:44:45;96230.81;;;12.94;95.88
6514;BME280;3290;47.716;9.070;2023-04-24T06:47:10;96238.34;;;12.48;97.47
6514;BME280;3290;47.716;9.070;2023-04-24T06:49:37;96240.81;;;12.55;97.43
6514;BME280;3290;47.716;9.070;2023-04-24T06:52:03;96239.06;;;13.03;95.27
6514;BME280;3290;47.716;9.070;2023-04-24T06:54:29;96240.75;;;12.71;94.53
6514;BME280;3290;47.716;9.070;2023-04-24T06:56:55;96241.84;;;12.91;94.40
6514;BME280;3290;47.716;9.070;2023-04-24T06:59:25;96238.28;;;12.81;94.65
6514;BME280;3290;47.716;9.070;2023-04-24T07:01:51;96246.50;;;12.68;92.57
6514;BME280;3290;47.716;9.070;2023-04-24T07:04:17;96254.19;;;12.53;93.05
6514;BME280;3290;47.716;9.070;2023-04-24T07:06:42;96258.47;;;12.97;89.64
6514;BME280;3290;47.716;9.070;2023-04-24T07:09:08;96261.19;;;13.07;89.07
6514;BME280;3290;47.716;9.070;2023-04-24T07:11:34;96267.28;;;13.07;86.54
6514;BME280;3290;47.716;9.070;2023-04-24T07:14:01;96259.75;;;13.42;84.52
6514;BME280;3290;47.716;9.070;2023-04-24T07:16:27;96263.81;;;13.28;87.19
6514;BME280;3290;47.716;9.070;2023-04-24T07:18:53;96258.66;;;13.38;85.65
6514;BME280;3290;47.716;9.070;2023-04-24T07:21:18;96265.63;;;13.49;85.34
6514;BME280;3290;47.716;9.070;2023-04-24T07:23:43;96263.34;;;13.57;83.04
6514;BME280;3290;47.716;9.070;2023-04-24T07:26:09;96264.19;;;13.36;82.33
6514;BME280;3290;47.716;9.070;2023-04-24T07:28:34;96271.16;;;13.26;85.10
6514;BME280;3290;47.716;9.070;2023-04-24T07:31:00;96273.31;;;13.08;83.48
6514;BME280;3290;47.716;9.070;2023-04-24T07:33:28;96273.13;;;13.35;82.20
6514;BME280;3290;47.716;9.070;2023-04-24T07:35:54;96284.81;;;13.02;83.73
6514;BME280;3290;47.716;9.070;2023-04-24T07:38:19;96281.69;;;13.05;80.82
6514;BME280;3290;47.716;9.070;2023-04-24T07:40:48;96279.06;;;13.26;83.11
6514;BME280;3290;47.716;9.070;2023-04-24T07:43:14;96287.94;;;13.67;81.41
6514;BME280;3290;47.716;9.070;2023-04-24T07:45:40;96289.38;;;13.54;81.51
6514;BME280;3290;47.716;9.070;2023-04-24T07:48:05;96293.56;;;13.28;82.92
6514;BME280;3290;47.716;9.070;2023-04-24T07:50:31;96290.06;;;13.44;79.64
6514;BME280;3290;47.716;9.070;2023-04-24T07:52:56;96287.88;;;13.89;77.95
6514;BME280;3290;47.716;9.070;2023-04-24T07:55:22;96288.41;;;14.17;77.59
6514;BME280;3290;47.716;9.070;2023-04-24T07:57:47;96298.38;;;13.36;78.17
6514;BME280;3290;47.716;9.070;2023-04-24T08:00:13;96298.59;;;13.56;80.84
6514;BME280;3290;47.716;9.070;2023-04-24T08:02:39;96302.41;;;13.22;81.03
6514;BME280;3290;47.716;9.070;2023-04-24T08:05:05;96310.69;;;13.31;79.32
6514;BME280;3290;47.716;9.070;2023-04-24T08:07:31;96300.94;;;12.89;79.66
6514;BME280;3290;47.716;9.070;2023-04-24T08:09:56;96308.53;;;13.07;78.74
6514;BME280;3290;47.716;9.070;2023-04-24T08:12:21;96316.09;;;12.82;78.96
6514;BME280;3290;47.716;9.070;2023-04-24T08:14:47;96323.16;;;13.19;79.28
6514;BME280;3290;47.716;9.070;2023-04-24T08:17:12;96314.56;;;12.86;77.49
6514;BME280;3290;47.716;9.070;2023-04-24T08:19:39;96316.50;;;13.12;76.25
6514;BME280;3290;47.716;9.070;2023-04-24T08:22:07;96324.94;;;13.35;75.41
6514;BME280;3290;47.716;9.070;2023-04-24T08:24:32;96330.50;;;13.38;74.97
6514;BME280;3290;47.716;9.070;2023-04-24T08:26:58;96325.56;;;13.20;75.41
6514;BME280;3290;47.716;9.070;2023-04-24T08:29:23;96330.56;;;13.43;75.75
6514;BME280;3290;47.716;9.070;2023-04-24T08:31:49;96331.91;;;13.24;73.35
6514;BME280;3290;47.716;9.070;2023-04-24T08:34:14;96338.63;;;12.94;73.87
6514;BME280;3290;47.716;9.070;2023-04-24T08:36:40;96335.81;;;13.01;73.58
6514;BME280;3290;47.716;9.070;2023-04-24T08:39:05;96340.84;;;13.23;72.42
6514;BME280;3290;47.716;9.070;2023-04-24T08:41:33;96352.72;;;13.26;74.00
6514;BME280;3290;47.716;9.070;2023-04-24T08:44:01;96343.53;;;13.97;71.27
6514;BME280;3290;47.716;9.070;2023-04-24T08:46:27;96342.94;;;13.43;69.76
6514;BME280;3290;47.716;9.070;2023-04-24T08:48:53;96336.78;;;14.06;69.23
6514;BME280;3290;47.716;9.070;2023-04-24T08:51:19;96344.03;;;14.92;66.70
6514;BME280;3290;47.716;9.070;2023-04-24T08:53:46;96349.56;;;14.86;67.33
6514;BME280;3290;47.716;9.070;2023-04-24T08:56:11;96356.97;;;14.94;67.01
6514;BME280;3290;47.716;9.070;2023-04-24T08:58:38;96351.88;;;14.15;65.45
6514;BME280;3290;47.716;9.070;2023-04-24T09:01:04;96358.31;;;13.77;67.21
6514;BME280;3290;47.716;9.070;2023-04-24T09:03:31;96360.31;;;13.65;67.92
6514;BME280;3290;47.716;9.070;2023-04-24T09:05:57;96364.19;;;13.84;68.76
6514;BME280;3290;47.716;9.070;2023-04-24T09:08:24;96356.22;;;13.79;67.13
6514;BME280;3290;47.716;9.070;2023-04-24T09:10:50;96356.75;;;14.28;64.97
6514;BME280;3290;47.716;9.070;2023-04-24T09:13:16;96361.22;;;13.75;66.75
6514;BME280;3290;47.716;9.070;2023-04-24T09:15:42;96361.94;;;14.18;65.19
6514;BME280;3290;47.716;9.070;2023-04-24T09:18:07;96359.66;;;14.27;65.17
6514;BME280;3290;47.716;9.070;2023-04-24T09:20:33;96364.72;;;14.33;64.39
6514;BME280;3290;47.716;9.070;2023-04-24T09:23:00;96364.03;;;14.16;64.19
6514;BME280;3290;47.716;9.070;2023-04-24T09:25:32;96361.91;;;14.44;64.46
6514;BME280;3290;47.716;9.070;2023-04-24T09:28:02;96368.00;;;15.22;60.76
6514;BME280;3290;47.716;9.070;2023-04-24T09:30:29;96378.00;;;14.48;63.70
6514;BME280;3290;47.716;9.070;2023-04-24T09:33:14;96376.81;;;15.01;61.43
6514;BME280;3290;47.716;9.070;2023-04-24T09:35:50;96383.81;;;15.17;59.60
6514;BME280;3290;47.716;9.070;2023-04-24T09:38:16;96377.91;;;15.05;59.29
6514;BME280;3290;47.716;9.070;2023-04-24T09:40:41;96381.22;;;15.27;57.78
6514;BME280;3290;47.716;9.070;2023-04-24T09:43:11;96370.19;;;15.40;56.16
6514;BME280;3290;47.716;9.070;2023-04-24T09:45:39;96368.22;;;15.76;55.73
6514;BME280;3290;47.716;9.070;2023-04-24T09:48:11;96369.47;;;15.54;56.72
6514;BME280;3290;47.716;9.070;2023-04-24T09:50:36;96380.03;;;15.54;57.89
6514;BME280;3290;47.716;9.070;2023-04-24T09:53:03;96379.75;;;15.46;58.66
6514;BME280;3290;47.716;9.070;2023-04-24T09:55:29;96380.34;;;15.67;55.07
6514;BME280;3290;47.716;9.070;2023-04-24T09:57:57;96376.94;;;15.72;53.92
6514;BME280;3290;47.716;9.070;2023-04-24T10:00:28;96389.66;;;15.29;53.74
6514;BME280;3290;47.716;9.070;2023-04-24T10:03:01;96384.75;;;15.06;55.53
6514;BME280;3290;47.716;9.070;2023-04-24T10:05:31;96387.28;;;14.86;56.05
6514;BME280;3290;47.716;9.070;2023-04-24T10:10:28;96381.72;;;14.52;56.25
6514;BME280;3290;47.716;9.070;2023-04-24T10:12:54;96389.22;;;14.65;57.30
6514;BME280;3290;47.716;9.070;2023-04-24T10:15:20;96402.44;;;14.70;57.64
6514;BME280;3290;47.716;9.070;2023-04-24T10:17:50;96397.69;;;14.67;56.94
6514;BME280;3290;47.716;9.070;2023-04-24T10:20:23;96388.59;;;14.84;56.42
6514;BME280;3290;47.716;9.070;2023-04-24T10:22:50;96394.38;;;14.50;53.78
6514;BME280;3290;47.716;9.070;2023-04-24T10:25:20;96402.66;;;14.32;54.93
6514;BME280;3290;47.716;9.070;2023-04-24T10:27:47;96397.06;;;14.29;54.80
6514;BME280;3290;47.716;9.070;2023-04-24T10:30:14;96408.81;;;14.42;56.63
6514;BME280;3290;47.716;9.070;2023-04-24T10:32:39;96409.31;;;13.92;54.06
6514;BME280;3290;47.716;9.070;2023-04-24T10:35:09;96410.06;;;14.35;55.32
6514;BME280;3290;47.716;9.070;2023-04-24T10:37:43;96404.97;;;14.55;55.40
6514;BME280;3290;47.716;9.070;2023-04-24T10:40:11;96416.38;;;15.01;52.71
6514;BME280;3290;47.716;9.070;2023-04-24T10:42:40;96411.16;;;15.06;54.25
6514;BME280;3290;47.716;9.070;2023-04-24T10:45:22;96410.03;;;14.97;53.87
6514;BME280;3290;47.716;9.070;2023-04-24T10:47:52;96406.78;;;15.72;52.42
6514;BME280;3290;47.716;9.070;2023-04-24T10:50:18;96408.34;;;15.63;52.80
6514;BME280;3290;47.716;9.070;2023-04-24T10:52:47;96410.75;;;16.55;50.42
6514;BME280;3290;47.716;9.070;2023-04-24T10:55:14;96408.47;;;16.08;53.40
6514;BME280;3290;47.716;9.070;2023-04-24T10:58:01;96422.41;;;15.79;52.90
6514;BME280;3290;47.716;9.070;2023-04-24T11:00:26;96411.13;;;16.13;47.99
6514;BME280;3290;47.716;9.070;2023-04-24T11:02:52;96397.00;;;15.73;49.28
6514;BME280;3290;47.716;9.070;2023-04-24T11:05:19;96404.25;;;15.41;49.36
6514;BME280;3290;47.716;9.070;2023-04-24T11:08:10;96408.59;;;15.62;50.07
6514;BME280;3290;47.716;9.070;2023-04-24T11:10:55;96409.69;;;15.76;50.27
6514;BME280;3290;47.716;9.070;2023-04-24T11:13:23;96413.03;;;15.52;51.20
6514;BME280;3290;47.716;9.070;2023-04-24T11:16:12;96425.16;;;16.08;48.33
6514;BME280;3290;47.716;9.070;2023-04-24T11:18:38;96417.34;;;16.63;49.04
6514;BME280;3290;47.716;9.070;2023-04-24T11:21:13;96421.84;;;16.82;49.11
6514;BME280;3290;47.716;9.070;2023-04-24T11:23:41;96414.94;;;17.01;49.24
6514;BME280;3290;47.716;9.070;2023-04-24T11:26:10;96428.72;;;16.48;49.33
6514;BME280;3290;47.716;9.070;2023-04-24T11:28:37;96419.88;;;15.48;50.13
6514;BME280;3290;47.716;9.070;2023-04-24T11:31:38;96426.59;;;15.24;52.52
6514;BME280;3290;47.716;9.070;2023-04-24T11:34:11;96419.31;;;15.41;52.21
6514;BME280;3290;47.716;9.070;2023-04-24T11:36:38;96432.69;;;15.75;53.50
6514;BME280;3290;47.716;9.070;2023-04-24T11:39:04;96427.78;;;16.03;51.61
6514;BME280;3290;47.716;9.070;2023-04-24T11:41:30;96429.81;;;15.87;53.20
6514;BME280;3290;47.716;9.070;2023-04-24T11:43:56;96435.00;;;16.28;50.29
6514;BME280;3290;47.716;9.070;2023-04-24T11:46:21;96429.25;;;16.65;49.27
6514;BME280;3290;47.716;9.070;2023-04-24T11:48:47;96426.59;;;16.65;48.55
6514;BME280;3290;47.716;9.070;2023-04-24T11:51:15;96428.16;;;16.46;47.95
6514;BME280;3290;47.716;9.070;2023-04-24T11:53:40;96431.25;;;16.14;49.04
6514;BME280;3290;47.716;9.070;2023-04-24T11:56:06;96423.94;;;16.60;47.47
6514;BME280;3290;47.716;9.070;2023-04-24T11:58:38;96431.28;;;15.58;50.38
6514;BME280;3290;47.716;9.070;2023-04-24T12:01:04;96431.97;;;15.39;50.91
6514;BME280;3290;47.716;9.070;2023-04-24T12:03:30;96434.94;;;15.11;51.48
6514;BME280;3290;47.716;9.070;2023-04-24T12:06:08;96438.50;;;15.77;50.76
6514;BME280;3290;47.716;9.070;2023-04-24T12:08:34;96445.59;;;16.28;50.76
6514;BME280;3290;47.716;9.070;2023-04-24T12:11:00;96442.19;;;15.76;50.35
6514;BME280;3290;47.716;9.070;2023-04-24T12:13:26;96444.78;;;16.27;51.73
6514;BME280;3290;47.716;9.070;2023-04-24T12:15:52;96444.97;;;16.11;53.22
6514;BME280;3290;47.716;9.070;2023-04-24T12:18:17;96441.34;;;15.66;52.14
6514;BME280;3290;47.716;9.070;2023-04-24T12:20:43;96449.06;;;15.77;50.45
6514;BME280;3290;47.716;9.070;2023-04-24T12:23:09;96444.22;;;15.55;50.21
6514;BME280;3290;47.716;9.070;2023-04-24T12:25:34;96449.53;;;15.19;51.08
6514;BME280;3290;47.716;9.070;2023-04-24T12:30:29;96448.19;;;15.16;50.81
6514;BME280;3290;47.716;9.070;2023-04-24T12:32:58;96452.38;;;15.12;51.70
6514;BME280;3290;47.716;9.070;2023-04-24T12:35:25;96448.63;;;15.08;51.03
6514;BME280;3290;47.716;9.070;2023-04-24T12:37:51;96451.06;;;15.51;51.84
6514;BME280;3290;47.716;9.070;2023-04-24T12:40:18;96448.38;;;14.79;49.68
6514;BME280;3290;47.716;9.070;2023-04-24T12:42:48;96459.81;;;14.89;50.29
6514;BME280;3290;47.716;9.070;2023-04-24T12:45:15;96446.72;;;15.30;51.58
6514;BME280;3290;47.716;9.070;2023-04-24T12:47:41;96437.28;;;15.44;51.40
6514;BME280;3290;47.716;9.070;2023-04-24T12:50:09;96437.28;;;15.44;51.14
6514;BME280;3290;47.716;9.070;2023-04-24T12:52:35;96430.88;;;15.30;50.20
6514;BME280;3290;47.716;9.070;2023-04-24T12:55:01;96435.00;;;16.28;48.09
6514;BME280;3290;47.716;9.070;2023-04-24T12:57:28;96427.00;;;15.47;49.75
6514;BME280;3290;47.716;9.070;2023-04-24T12:59:55;96427.72;;;15.38;50.10
6514;BME280;3290;47.716;9.070;2023-04-24T13:02:24;96424.72;;;15.65;50.44
6514;BME280;3290;47.716;9.070;2023-04-24T13:04:50;96421.59;;;15.73;48.52
6514;BME280;3290;47.716;9.070;2023-04-24T13:07:16;96434.78;;;15.78;48.20
6514;BME280;3290;47.716;9.070;2023-04-24T13:09:43;96426.91;;;15.88;49.24
6514;BME280;3290;47.716;9.070;2023-04-24T13:12:09;96427.63;;;16.35;47.98
6514;BME280;3290;47.716;9.070;2023-04-24T13:14:35;96424.84;;;15.95;48.35
6514;BME280;3290;47.716;9.070;2023-04-24T13:17:01;96422.31;;;15.64;50.00
6514;BME280;3290;47.716;9.070;2023-04-24T13:19:27;96421.06;;;15.76;49.43